Time;durP1;ratioP1;P1;durP2;ratioP2;P2;SDS_P1;SDS_P2;PMS_P1;PMS_P2;Temp;Humidity;BMP_temperature;BMP_pressure;BME280_temperature;BME280_humidity;BME280_pressure;Samples;Min_cycle;Max_cycle;Signal;HPM_P1;HPM_P2
2022/09/02 00:00:34;;;;;;;;;;;16.80;99.90;;;;;;5081657;28;19918;-72
2022/09/02 00:02:59;;;;;;;;;;;16.70;99.90;;;;;;5058541;28;19951;-72
2022/09/02 00:05:25;;;;;;;;;;;16.80;99.90;;;;;;5089070;28;19916;-72
2022/09/02 00:07:50;;;;;;;;;;;16.70;99.90;;;;;;5096681;28;20104;-72
2022/09/02 00:10:16;;;;;;;;;;;16.70;99.90;;;;;;5077808;28;20325;-72
2022/09/02 00:12:41;;;;;;;;;;;16.70;99.90;;;;;;5080610;28;19993;-72
2022/09/02 00:15:07;;;;;;;;;;;16.70;99.90;;;;;;5066640;28;20033;-72
2022/09/02 00:17:33;;;;;;;;;;;16.80;99.90;;;;;;5073050;28;20031;-71
2022/09/02 00:19:58;;;;;;;;;;;16.80;99.90;;;;;;5080694;28;19959;-72
2022/09/02 00:22:24;;;;;;;;;;;16.80;99.90;;;;;;5057971;28;20580;-72
2022/09/02 00:24:50;;;;;;;;;;;16.80;99.90;;;;;;5077921;28;19926;-72
2022/09/02 00:27:15;;;;;;;;;;;16.80;99.90;;;;;;5092980;28;19916;-72
2022/09/02 00:29:41;;;;;;;;;;;16.80;99.90;;;;;;5089036;28;20014;-71
2022/09/02 00:32:06;;;;;;;;;;;16.80;99.90;;;;;;5076833;28;19943;-71
2022/09/02 00:34:32;;;;;;;;;;;16.80;99.90;;;;;;5059006;28;19916;-71
2022/09/02 00:36:57;;;;;;;;;;;16.80;99.90;;;;;;5070140;28;20091;-71
2022/09/02 00:39:23;;;;;;;;;;;16.80;99.90;;;;;;5082110;28;19916;-72
2022/09/02 00:41:49;;;;;;;;;;;16.80;99.90;;;;;;5078681;28;19923;-72
2022/09/02 00:44:16;;;;;;;;;;;16.80;99.90;;;;;;5073032;28;19920;-72
2022/09/02 00:46:41;;;;;;;;;;;16.80;99.90;;;;;;5058286;28;20358;-72
2022/09/02 00:49:13;;;;;;;;;;;16.80;99.90;;;;;;5095713;28;20040;-72
2022/09/02 00:51:42;;;;;;;;;;;16.80;99.90;;;;;;5095598;28;20268;-71
2022/09/02 00:54:08;;;;;;;;;;;16.80;99.90;;;;;;5095932;28;19912;-71
2022/09/02 00:56:35;;;;;;;;;;;16.80;99.90;;;;;;5091219;28;19940;-72
2022/09/02 00:59:01;;;;;;;;;;;16.80;99.90;;;;;;5086267;28;19923;-71
2022/09/02 01:01:27;;;;;;;;;;;16.80;99.90;;;;;;5092082;28;19912;-71
2022/09/02 01:03:52;;;;;;;;;;;16.80;99.90;;;;;;5060963;28;20371;-72
2022/09/02 01:06:23;;;;;;;;;;;16.80;99.90;;;;;;5057922;28;20317;-71
2022/09/02 01:08:53;;;;;;;;;;;16.80;99.90;;;;;;5071409;28;20099;-71
2022/09/02 01:11:20;;;;;;;;;;;16.80;99.90;;;;;;5071517;28;19950;-72
2022/09/02 01:13:46;;;;;;;;;;;16.80;99.90;;;;;;5069027;28;19916;-72
2022/09/02 01:16:18;;;;;;;;;;;16.70;99.90;;;;;;5075270;28;20326;-72
2022/09/02 01:18:45;;;;;;;;;;;16.70;99.90;;;;;;5062548;28;19963;-72
2022/09/02 01:21:12;;;;;;;;;;;16.70;99.90;;;;;;5062287;28;19924;-72
2022/09/02 01:23:38;;;;;;;;;;;16.70;99.90;;;;;;5065876;28;20016;-72
2022/09/02 01:26:04;;;;;;;;;;;16.70;99.90;;;;;;5054179;28;19917;-72
2022/09/02 01:28:32;;;;;;;;;;;16.70;99.90;;;;;;5057774;28;20043;-72
2022/09/02 01:30:57;;;;;;;;;;;16.60;99.90;;;;;;5061424;28;19927;-72
2022/09/02 01:33:24;;;;;;;;;;;16.60;99.90;;;;;;5072673;28;20390;-72
2022/09/02 01:35:50;;;;;;;;;;;16.60;99.90;;;;;;5073624;28;20005;-72
2022/09/02 01:38:15;;;;;;;;;;;16.60;99.90;;;;;;5067151;28;20011;-72
2022/09/02 01:40:41;;;;;;;;;;;16.60;99.90;;;;;;5074557;28;19916;-71
2022/09/02 01:43:12;;;;;;;;;;;16.60;99.90;;;;;;5084335;28;20453;-73
2022/09/02 01:45:39;;;;;;;;;;;16.60;99.90;;;;;;5085816;28;19917;-71
2022/09/02 01:48:05;;;;;;;;;;;16.60;99.90;;;;;;5087295;28;20383;-72
2022/09/02 01:50:30;;;;;;;;;;;16.60;99.90;;;;;;5078079;28;19934;-72
2022/09/02 01:52:57;;;;;;;;;;;16.60;99.90;;;;;;5073084;28;19923;-71
2022/09/02 01:55:22;;;;;;;;;;;16.60;99.90;;;;;;5073434;28;19932;-71
2022/09/02 01:57:48;;;;;;;;;;;16.50;99.90;;;;;;5076575;28;20167;-72
2022/09/02 02:00:15;;;;;;;;;;;16.60;99.90;;;;;;5094980;28;19974;-73
2022/09/02 02:02:40;;;;;;;;;;;16.60;99.90;;;;;;5081966;28;20237;-72
2022/09/02 02:05:06;;;;;;;;;;;16.60;99.90;;;;;;5080015;28;19923;-72
2022/09/02 02:07:32;;;;;;;;;;;16.60;99.90;;;;;;5101891;28;19932;-72
2022/09/02 02:09:57;;;;;;;;;;;16.60;99.90;;;;;;5099634;28;19931;-71
2022/09/02 02:12:23;;;;;;;;;;;16.60;99.90;;;;;;5057113;28;19916;-71
2022/09/02 02:14:48;;;;;;;;;;;16.60;99.90;;;;;;5079685;28;19916;-72
2022/09/02 02:17:14;;;;;;;;;;;16.50;99.90;;;;;;5097104;28;19919;-72
2022/09/02 02:19:39;;;;;;;;;;;16.50;99.90;;;;;;5092660;28;20455;-73
2022/09/02 02:22:05;;;;;;;;;;;16.50;99.90;;;;;;5094574;28;19920;-72
2022/09/02 02:24:30;;;;;;;;;;;16.50;99.90;;;;;;5085108;28;20013;-72
2022/09/02 02:26:56;;;;;;;;;;;16.50;99.90;;;;;;5081961;28;19916;-72
2022/09/02 02:29:22;;;;;;;;;;;16.50;99.90;;;;;;5073220;28;19986;-73
2022/09/02 02:31:48;;;;;;;;;;;16.50;99.90;;;;;;5098036;28;19924;-72
2022/09/02 02:34:13;;;;;;;;;;;16.50;99.90;;;;;;5080827;28;19920;-71
2022/09/02 02:36:39;;;;;;;;;;;16.50;99.90;;;;;;5094544;28;19918;-72
2022/09/02 02:39:06;;;;;;;;;;;16.50;99.90;;;;;;5063263;28;19961;-72
2022/09/02 02:41:32;;;;;;;;;;;16.50;99.90;;;;;;5100103;28;19938;-72
2022/09/02 02:43:57;;;;;;;;;;;16.50;99.90;;;;;;5095993;28;19916;-72
2022/09/02 02:46:23;;;;;;;;;;;16.50;99.90;;;;;;5066805;28;19917;-72
2022/09/02 02:48:49;;;;;;;;;;;16.50;99.90;;;;;;5069455;28;20043;-72
2022/09/02 02:51:14;;;;;;;;;;;16.50;99.90;;;;;;5067785;28;19974;-72
2022/09/02 02:53:40;;;;;;;;;;;16.50;99.90;;;;;;5069424;28;20393;-72
2022/09/02 02:56:05;;;;;;;;;;;16.50;99.90;;;;;;5097479;28;19973;-72
2022/09/02 02:58:31;;;;;;;;;;;16.50;99.90;;;;;;5100132;28;20395;-72
2022/09/02 03:00:57;;;;;;;;;;;16.50;99.90;;;;;;5091839;28;20340;-71
2022/09/02 03:03:22;;;;;;;;;;;16.50;99.90;;;;;;5061269;28;19916;-72
2022/09/02 03:05:48;;;;;;;;;;;16.50;99.90;;;;;;5060493;28;20401;-72
2022/09/02 03:08:14;;;;;;;;;;;16.50;99.90;;;;;;5074581;28;19916;-72
2022/09/02 03:10:40;;;;;;;;;;;16.50;99.90;;;;;;5075024;28;19920;-71
2022/09/02 03:13:08;;;;;;;;;;;16.50;99.90;;;;;;5078644;28;19938;-71
2022/09/02 03:15:34;;;;;;;;;;;16.50;99.90;;;;;;5066760;28;19920;-71
2022/09/02 03:17:59;;;;;;;;;;;16.50;99.90;;;;;;5074582;28;19926;-71
2022/09/02 03:20:25;;;;;;;;;;;16.50;99.90;;;;;;5080768;28;19928;-71
2022/09/02 03:22:53;;;;;;;;;;;16.40;99.90;;;;;;5093654;28;20259;-71
2022/09/02 03:25:19;;;;;;;;;;;16.40;99.90;;;;;;5075626;28;19926;-72
2022/09/02 03:27:46;;;;;;;;;;;16.50;99.90;;;;;;5076615;28;19916;-71
2022/09/02 03:30:14;;;;;;;;;;;16.50;99.90;;;;;;5057086;28;19924;-71
2022/09/02 03:32:40;;;;;;;;;;;16.40;99.90;;;;;;5069489;28;19920;-71
2022/09/02 03:35:06;;;;;;;;;;;16.40;99.90;;;;;;5071623;28;19981;-71
2022/09/02 03:37:33;;;;;;;;;;;16.40;99.90;;;;;;5070843;28;19920;-71
2022/09/02 03:40:00;;;;;;;;;;;16.40;99.90;;;;;;5071624;28;19927;-71
2022/09/02 03:42:26;;;;;;;;;;;16.40;99.90;;;;;;5084652;28;20007;-71
2022/09/02 03:44:52;;;;;;;;;;;16.30;99.90;;;;;;5080909;28;20014;-71
2022/09/02 03:47:18;;;;;;;;;;;16.30;99.90;;;;;;5075486;28;19993;-71
2022/09/02 03:49:44;;;;;;;;;;;16.30;99.90;;;;;;5073600;28;19977;-71
2022/09/02 03:52:10;;;;;;;;;;;16.30;99.90;;;;;;5085318;28;19968;-71
2022/09/02 03:54:35;;;;;;;;;;;16.30;99.90;;;;;;5090899;28;19969;-71
2022/09/02 03:57:00;;;;;;;;;;;16.30;99.90;;;;;;5077559;28;19912;-71
2022/09/02 03:59:26;;;;;;;;;;;16.30;99.90;;;;;;5088159;28;19999;-71
2022/09/02 04:01:51;;;;;;;;;;;16.30;99.90;;;;;;5078659;28;20354;-71
2022/09/02 04:04:18;;;;;;;;;;;16.20;99.90;;;;;;5090309;28;20328;-70
2022/09/02 04:06:43;;;;;;;;;;;16.20;99.90;;;;;;5069806;28;19993;-71
2022/09/02 04:09:09;;;;;;;;;;;16.20;99.90;;;;;;5073135;28;19922;-71
2022/09/02 04:11:35;;;;;;;;;;;16.20;99.90;;;;;;5072475;28;19946;-71
2022/09/02 04:14:01;;;;;;;;;;;16.20;99.90;;;;;;5077903;28;20003;-71
2022/09/02 04:16:27;;;;;;;;;;;16.20;99.90;;;;;;5083486;28;20460;-71
2022/09/02 04:18:56;;;;;;;;;;;16.20;99.90;;;;;;5082608;28;19931;-71
2022/09/02 04:21:22;;;;;;;;;;;16.20;99.90;;;;;;5066152;28;19927;-70
2022/09/02 04:23:48;;;;;;;;;;;16.20;99.90;;;;;;5084026;28;20335;-71
2022/09/02 04:26:15;;;;;;;;;;;16.10;99.90;;;;;;5084117;28;20408;-71
2022/09/02 04:28:40;;;;;;;;;;;16.10;99.90;;;;;;5094911;28;19951;-71
2022/09/02 04:31:07;;;;;;;;;;;16.10;99.90;;;;;;5093963;28;20026;-71
2022/09/02 04:33:33;;;;;;;;;;;16.10;99.90;;;;;;5082493;28;19984;-71
2022/09/02 04:35:59;;;;;;;;;;;16.10;99.90;;;;;;5072408;28;19923;-71
2022/09/02 04:38:24;;;;;;;;;;;16.10;99.90;;;;;;5087836;28;19921;-71
2022/09/02 04:40:50;;;;;;;;;;;16.10;99.90;;;;;;5082215;28;19986;-71
2022/09/02 04:43:16;;;;;;;;;;;16.10;99.90;;;;;;5073431;28;19985;-71
2022/09/02 04:45:43;;;;;;;;;;;16.20;99.90;;;;;;5068757;28;19944;-71
2022/09/02 04:48:09;;;;;;;;;;;16.10;99.90;;;;;;5075743;28;19917;-71
2022/09/02 04:50:35;;;;;;;;;;;16.10;99.90;;;;;;5057634;28;19926;-71
2022/09/02 04:53:01;;;;;;;;;;;16.10;99.90;;;;;;5054917;28;20456;-71
2022/09/02 04:55:26;;;;;;;;;;;16.10;99.90;;;;;;5076908;28;20242;-71
2022/09/02 04:57:52;;;;;;;;;;;16.10;99.90;;;;;;5091710;28;19995;-71
2022/09/02 05:00:18;;;;;;;;;;;16.10;99.90;;;;;;5091805;28;20020;-71
2022/09/02 05:02:43;;;;;;;;;;;16.10;99.90;;;;;;5069100;28;19917;-71
2022/09/02 05:05:09;;;;;;;;;;;16.10;99.90;;;;;;5074799;28;19916;-71
2022/09/02 05:07:36;;;;;;;;;;;16.10;99.90;;;;;;5072316;28;19967;-71
2022/09/02 05:10:02;;;;;;;;;;;16.10;99.90;;;;;;5078332;28;19923;-71
2022/09/02 05:12:30;;;;;;;;;;;16.10;99.90;;;;;;5061929;28;19920;-71
2022/09/02 05:14:57;;;;;;;;;;;16.00;99.90;;;;;;5073063;28;19942;-71
2022/09/02 05:17:23;;;;;;;;;;;16.10;99.90;;;;;;5066402;28;19927;-71
2022/09/02 05:19:49;;;;;;;;;;;16.20;99.90;;;;;;5076066;28;19955;-71
2022/09/02 05:22:14;;;;;;;;;;;16.10;99.90;;;;;;5075987;28;19915;-71
2022/09/02 05:24:41;;;;;;;;;;;16.10;99.90;;;;;;5091003;28;20298;-71
2022/09/02 05:27:07;;;;;;;;;;;16.10;99.90;;;;;;5086484;28;20192;-72
2022/09/02 05:29:32;;;;;;;;;;;16.10;99.90;;;;;;5079308;28;19996;-71
2022/09/02 05:31:58;;;;;;;;;;;16.20;99.90;;;;;;5089854;28;20395;-71
2022/09/02 05:34:24;;;;;;;;;;;16.10;99.90;;;;;;5094146;28;19912;-71
2022/09/02 05:36:49;;;;;;;;;;;16.10;99.90;;;;;;5096545;28;19918;-71
2022/09/02 05:39:15;;;;;;;;;;;16.20;99.90;;;;;;5056526;28;19986;-71
2022/09/02 05:41:41;;;;;;;;;;;16.20;99.90;;;;;;5072871;28;19924;-71
2022/09/02 05:44:06;;;;;;;;;;;16.20;99.90;;;;;;5063890;28;20052;-71
2022/09/02 05:46:32;;;;;;;;;;;16.20;99.90;;;;;;5098911;28;20426;-70
2022/09/02 05:49:16;;;;;;;;;;;16.20;99.90;;;;;;5099813;28;20107;-71
2022/09/02 05:51:43;;;;;;;;;;;16.20;99.90;;;;;;5081020;28;20015;-71
2022/09/02 05:54:10;;;;;;;;;;;16.20;99.90;;;;;;5059917;28;19916;-71
2022/09/02 05:56:39;;;;;;;;;;;16.30;99.90;;;;;;5093168;28;19915;-71
2022/09/02 05:59:06;;;;;;;;;;;16.30;99.90;;;;;;5090202;28;19916;-71
2022/09/02 06:01:32;;;;;;;;;;;16.30;99.90;;;;;;5070701;28;19966;-71
2022/09/02 06:04:01;;;;;;;;;;;16.40;99.90;;;;;;5075218;28;19912;-71
2022/09/02 06:06:27;;;;;;;;;;;16.40;99.90;;;;;;5076721;28;19924;-71
2022/09/02 06:08:52;;;;;;;;;;;16.40;99.90;;;;;;5078774;28;19967;-71
2022/09/02 06:11:18;;;;;;;;;;;16.50;99.90;;;;;;5082749;28;20042;-71
2022/09/02 06:13:44;;;;;;;;;;;16.50;99.90;;;;;;5095390;28;20314;-71
2022/09/02 06:16:18;;;;;;;;;;;16.60;99.90;;;;;;5080325;28;19916;-71
2022/09/02 06:18:44;;;;;;;;;;;16.60;99.90;;;;;;5066172;28;20334;-71
2022/09/02 06:21:09;;;;;;;;;;;16.60;99.90;;;;;;5082786;28;20455;-71
2022/09/02 06:23:37;;;;;;;;;;;16.70;99.90;;;;;;5080136;28;19923;-71
2022/09/02 06:26:03;;;;;;;;;;;16.80;99.90;;;;;;5057325;28;20006;-71
2022/09/02 06:28:29;;;;;;;;;;;16.90;99.90;;;;;;5071982;28;19935;-71
2022/09/02 06:30:55;;;;;;;;;;;16.90;99.90;;;;;;5074372;28;19920;-71
2022/09/02 06:33:20;;;;;;;;;;;17.10;99.90;;;;;;5086367;28;20158;-71
2022/09/02 06:35:46;;;;;;;;;;;17.20;99.90;;;;;;5088511;28;20246;-71
2022/09/02 06:38:12;;;;;;;;;;;17.20;99.90;;;;;;5071421;28;20439;-71
2022/09/02 06:40:48;;;;;;;;;;;17.30;99.90;;;;;;5069206;28;20405;-70
2022/09/02 06:43:13;;;;;;;;;;;17.40;99.90;;;;;;5068756;28;19958;-71
2022/09/02 06:45:39;;;;;;;;;;;17.50;99.90;;;;;;5080946;28;20390;-71
2022/09/02 06:48:05;;;;;;;;;;;17.50;99.90;;;;;;5077306;28;20273;-71
2022/09/02 06:50:30;;;;;;;;;;;17.60;99.90;;;;;;5072972;28;20050;-71
2022/09/02 06:52:56;;;;;;;;;;;17.70;99.90;;;;;;5064500;28;20371;-71
2022/09/02 06:55:21;;;;;;;;;;;17.80;99.90;;;;;;5060147;28;19943;-71
2022/09/02 06:57:47;;;;;;;;;;;17.90;99.90;;;;;;5056446;28;19966;-71
2022/09/02 07:00:13;;;;;;;;;;;18.00;99.90;;;;;;5066098;28;20025;-71
2022/09/02 07:02:38;;;;;;;;;;;18.00;99.90;;;;;;5066308;28;19959;-71
2022/09/02 07:05:13;;;;;;;;;;;18.10;99.90;;;;;;5062615;28;19962;-71
2022/09/02 07:07:40;;;;;;;;;;;18.20;99.90;;;;;;5067816;28;20425;-71
2022/09/02 07:10:07;;;;;;;;;;;18.30;99.90;;;;;;5073153;28;19912;-71
2022/09/02 07:12:33;;;;;;;;;;;18.30;99.90;;;;;;5079028;28;20439;-71
2022/09/02 07:14:59;;;;;;;;;;;18.40;99.90;;;;;;5092776;28;20291;-71
2022/09/02 07:17:24;;;;;;;;;;;18.40;99.90;;;;;;5057854;28;19916;-71
2022/09/02 07:19:50;;;;;;;;;;;18.30;99.90;;;;;;5069813;28;19932;-72
2022/09/02 07:22:16;;;;;;;;;;;18.40;99.90;;;;;;5082401;28;20283;-71
2022/09/02 07:24:42;;;;;;;;;;;18.40;99.90;;;;;;5054455;28;19916;-71
2022/09/02 07:27:07;;;;;;;;;;;18.30;99.90;;;;;;5069530;28;19916;-71
2022/09/02 07:29:34;;;;;;;;;;;18.40;99.90;;;;;;5057910;28;19996;-71
2022/09/02 07:31:59;;;;;;;;;;;18.40;99.90;;;;;;5075211;28;19924;-71
2022/09/02 07:34:25;;;;;;;;;;;18.50;99.90;;;;;;5083154;28;19916;-71
2022/09/02 07:36:51;;;;;;;;;;;18.70;99.90;;;;;;5060228;28;19916;-71
2022/09/02 07:39:17;;;;;;;;;;;18.90;99.90;;;;;;5083240;28;19960;-72
2022/09/02 07:41:44;;;;;;;;;;;19.30;99.90;;;;;;5078676;28;19923;-71
2022/09/02 07:44:10;;;;;;;;;;;19.60;99.90;;;;;;5072357;28;20096;-71
2022/09/02 07:46:36;;;;;;;;;;;19.80;99.90;;;;;;5040382;28;20062;-71
2022/09/02 07:49:05;;;;;;;;;;;20.00;99.90;;;;;;5072854;28;19916;-71
2022/09/02 07:51:32;;;;;;;;;;;20.20;99.90;;;;;;5064676;28;19924;-71
2022/09/02 07:53:58;;;;;;;;;;;20.40;99.90;;;;;;5074077;28;19917;-72
2022/09/02 07:56:23;;;;;;;;;;;20.60;99.90;;;;;;5067515;28;19935;-71
2022/09/02 07:58:49;;;;;;;;;;;20.90;99.90;;;;;;5074516;28;20047;-71
2022/09/02 08:01:15;;;;;;;;;;;21.00;99.90;;;;;;5073574;28;19935;-71
2022/09/02 08:03:43;;;;;;;;;;;21.20;99.90;;;;;;5073935;28;20387;-71
2022/09/02 08:06:09;;;;;;;;;;;21.30;99.90;;;;;;5077933;28;19916;-71
2022/09/02 08:08:34;;;;;;;;;;;21.30;99.90;;;;;;5076405;28;20031;-71
2022/09/02 08:11:00;;;;;;;;;;;21.20;99.90;;;;;;5063196;28;19924;-70
2022/09/02 08:13:26;;;;;;;;;;;21.10;99.90;;;;;;5053473;28;20030;-71
2022/09/02 08:15:51;;;;;;;;;;;21.00;99.90;;;;;;5065562;28;20365;-72
2022/09/02 08:18:17;;;;;;;;;;;20.90;99.90;;;;;;5049713;28;20454;-71
2022/09/02 08:20:43;;;;;;;;;;;20.80;99.90;;;;;;5067686;28;20422;-71
2022/09/02 08:23:09;;;;;;;;;;;20.70;99.90;;;;;;5051677;28;19920;-70
2022/09/02 08:25:34;;;;;;;;;;;20.70;99.90;;;;;;5061152;28;20459;-71
2022/09/02 08:28:00;;;;;;;;;;;20.70;99.90;;;;;;5072310;28;19942;-71
2022/09/02 08:30:26;;;;;;;;;;;20.70;99.90;;;;;;5069109;28;19973;-71
2022/09/02 08:32:51;;;;;;;;;;;20.70;99.90;;;;;;5073052;28;20410;-71
2022/09/02 08:35:17;;;;;;;;;;;20.70;99.90;;;;;;5085922;28;19916;-70
2022/09/02 08:37:42;;;;;;;;;;;20.60;99.90;;;;;;5070035;28;20055;-71
2022/09/02 08:40:13;;;;;;;;;;;20.50;99.90;;;;;;5057815;28;19962;-70
2022/09/02 08:42:52;;;;;;;;;;;20.50;99.90;;;;;;5067344;28;20408;-71
2022/09/02 08:45:20;;;;;;;;;;;20.60;99.90;;;;;;5067039;28;19923;-70
2022/09/02 08:47:48;;;;;;;;;;;20.60;99.90;;;;;;5063209;28;19934;-70
2022/09/02 08:50:15;;;;;;;;;;;20.60;99.90;;;;;;5062151;28;20015;-71
2022/09/02 08:53:00;;;;;;;;;;;20.60;99.90;;;;;;5060782;28;20329;-71
2022/09/02 08:55:29;;;;;;;;;;;20.70;99.90;;;;;;5061936;28;19916;-72
2022/09/02 08:57:55;;;;;;;;;;;20.80;99.90;;;;;;5069406;28;19916;-71
2022/09/02 09:00:21;;;;;;;;;;;20.90;99.90;;;;;;5069864;28;19917;-71
2022/09/02 09:02:46;;;;;;;;;;;21.00;99.90;;;;;;5064806;28;19922;-72
2022/09/02 09:05:15;;;;;;;;;;;21.20;99.90;;;;;;5061790;28;20557;-70
2022/09/02 09:07:49;;;;;;;;;;;21.30;99.90;;;;;;5066679;28;19915;-71
2022/09/02 09:10:21;;;;;;;;;;;21.40;99.90;;;;;;5065604;28;20030;-72
2022/09/02 09:12:46;;;;;;;;;;;21.40;99.90;;;;;;5059808;28;19924;-71
2022/09/02 09:15:15;;;;;;;;;;;21.30;99.90;;;;;;5063612;28;19919;-71
2022/09/02 09:17:58;;;;;;;;;;;21.30;99.90;;;;;;5057687;28;20438;-71
2022/09/02 09:20:25;;;;;;;;;;;21.50;99.90;;;;;;5056882;28;20374;-71
2022/09/02 09:22:55;;;;;;;;;;;21.40;99.90;;;;;;5057336;28;20120;-71
2022/09/02 09:25:28;;;;;;;;;;;21.30;99.90;;;;;;5060899;28;19924;-71
2022/09/02 09:27:55;;;;;;;;;;;21.30;99.90;;;;;;5040288;28;19919;-70
2022/09/02 09:30:21;;;;;;;;;;;21.30;99.90;;;;;;5062613;28;20301;-71
2022/09/02 09:32:49;;;;;;;;;;;21.30;99.90;;;;;;5055950;28;20106;-71
2022/09/02 09:35:15;;;;;;;;;;;21.30;99.90;;;;;;5070176;28;19920;-70
2022/09/02 09:37:46;;;;;;;;;;;21.20;99.90;;;;;;5058472;28;19927;-70
2022/09/02 09:40:24;;;;;;;;;;;21.40;99.90;;;;;;5064370;28;21509;-70
2022/09/02 09:42:55;;;;;;;;;;;21.40;99.90;;;;;;5062345;28;19967;-72
2022/09/02 09:45:21;;;;;;;;;;;21.70;99.90;;;;;;5072391;28;21923;-71
2022/09/02 09:48:06;;;;;;;;;;;21.60;99.90;;;;;;5032966;28;19916;-71
2022/09/02 09:50:31;;;;;;;;;;;21.60;99.90;;;;;;5046137;28;20063;-71
2022/09/02 09:53:16;;;;;;;;;;;21.60;99.90;;;;;;5047913;28;19931;-71
2022/09/02 09:55:51;;;;;;;;;;;21.50;99.90;;;;;;5050489;28;20524;-71
2022/09/02 09:58:17;;;;;;;;;;;21.60;99.90;;;;;;5060814;28;19926;-71
2022/09/02 10:00:43;;;;;;;;;;;21.60;99.90;;;;;;5066180;28;19916;-72
2022/09/02 10:03:19;;;;;;;;;;;21.40;99.90;;;;;;4751297;23;10000090;-72
2022/09/02 10:05:45;;;;;;;;;;;21.30;99.90;;;;;;5018659;28;19916;-72
2022/09/02 10:08:16;;;;;;;;;;;21.10;99.90;;;;;;5023886;28;19960;-71
2022/09/02 10:11:01;;;;;;;;;;;20.90;99.90;;;;;;5032145;28;19921;-71
2022/09/02 10:19:02;;;;;;;;;;;20.40;99.90;;;;;;5638866;23;19932;-70
2022/09/02 10:21:51;;;;;;;;;;;20.30;99.90;;;;;;4872556;29;19951;-70
2022/09/02 10:24:22;;;;;;;;;;;20.20;99.90;;;;;;4842380;29;19993;-70
2022/09/02 10:26:51;;;;;;;;;;;20.40;99.90;;;;;;4882497;29;19981;-70
2022/09/02 10:29:30;;;;;;;;;;;20.40;99.90;;;;;;4863322;29;20734;-71
2022/09/02 10:31:59;;;;;;;;;;;20.60;99.90;;;;;;4926460;23;19912;-91
2022/09/02 10:34:43;;;;;;;;;;;20.70;99.90;;;;;;5331696;23;20615;-71
2022/09/02 10:37:25;;;;;;;;;;;20.90;99.90;;;;;;4915350;29;19919;-71
2022/09/02 10:40:08;;;;;;;;;;;21.10;99.90;;;;;;4913382;29;19923;-72
2022/09/02 10:42:53;;;;;;;;;;;21.40;99.90;;;;;;4920256;29;19966;-71
2022/09/02 10:45:37;;;;;;;;;;;21.70;99.90;;;;;;4916558;29;20231;-70
2022/09/02 10:48:05;;;;;;;;;;;22.00;99.90;;;;;;4909868;29;19949;-70
2022/09/02 10:50:52;;;;;;;;;;;22.30;99.90;;;;;;4908389;29;19970;-70
2022/09/02 10:53:20;;;;;;;;;;;22.60;99.90;;;;;;4897404;29;20418;-70
2022/09/02 10:56:00;;;;;;;;;;;23.00;99.90;;;;;;4909041;29;19922;-70
2022/09/02 10:58:44;;;;;;;;;;;23.50;99.90;;;;;;4908543;29;20349;-69
2022/09/02 11:01:32;;;;;;;;;;;24.30;99.90;;;;;;4904238;29;19923;-70
2022/09/02 11:04:16;;;;;;;;;;;25.10;99.90;;;;;;4909381;29;19922;-70
2022/09/02 11:06:42;;;;;;;;;;;26.00;99.90;;;;;;4911165;29;19990;-67
2022/09/02 11:09:28;;;;;;;;;;;26.30;99.90;;;;;;4907120;29;20009;-68
2022/09/02 11:11:59;;;;;;;;;;;26.50;99.90;;;;;;4891760;29;20409;-67
2022/09/02 11:14:36;;;;;;;;;;;26.20;99.90;;;;;;4907655;29;19919;-66
2022/09/02 11:17:07;;;;;;;;;;;26.10;99.90;;;;;;4904851;29;20366;-66
2022/09/02 11:19:52;;;;;;;;;;;26.00;99.90;;;;;;4909725;29;21739;-67
2022/09/02 11:22:21;;;;;;;;;;;26.30;99.90;;;;;;4903491;29;19958;-67
2022/09/02 11:24:46;;;;;;;;;;;26.60;99.90;;;;;;4916707;29;19990;-66
2022/09/02 11:27:32;;;;;;;;;;;26.60;99.90;;;;;;4914723;29;20015;-67
2022/09/02 11:30:17;;;;;;;;;;;26.80;99.90;;;;;;4912703;29;20013;-67
2022/09/02 11:32:55;;;;;;;;;;;26.80;99.90;;;;;;4919707;29;19985;-67
2022/09/02 11:35:26;;;;;;;;;;;26.60;99.90;;;;;;4911906;29;19934;-66
2022/09/02 11:37:58;;;;;;;;;;;26.10;99.90;;;;;;4916449;29;20313;-69
2022/09/02 11:40:27;;;;;;;;;;;25.70;99.90;;;;;;4917741;29;19919;-70
2022/09/02 11:43:11;;;;;;;;;;;25.40;99.90;;;;;;4925301;29;20428;-71
2022/09/02 11:45:38;;;;;;;;;;;25.00;99.90;;;;;;4916894;29;19923;-71
2022/09/02 11:48:09;;;;;;;;;;;24.70;99.90;;;;;;4915141;29;19919;-71
2022/09/02 11:50:38;;;;;;;;;;;24.40;99.90;;;;;;4917692;29;20166;-71
2022/09/02 11:53:22;;;;;;;;;;;23.80;99.90;;;;;;4919842;29;19914;-72
2022/09/02 11:55:55;;;;;;;;;;;23.50;99.90;;;;;;4915721;29;20013;-71
2022/09/02 11:58:38;;;;;;;;;;;23.30;99.90;;;;;;4918378;29;20359;-71
2022/09/02 12:01:04;;;;;;;;;;;23.10;99.90;;;;;;4915502;29;19973;-71
2022/09/02 12:03:30;;;;;;;;;;;22.90;99.90;;;;;;4912251;29;20310;-71
2022/09/02 12:06:12;;;;;;;;;;;22.60;99.90;;;;;;4916778;29;19911;-70
2022/09/02 12:08:41;;;;;;;;;;;22.40;99.90;;;;;;4239691;29;10000602;-71
2022/09/02 12:11:08;;;;;;;;;;;22.20;99.90;;;;;;4933004;29;20369;-71
2022/09/02 12:13:47;;;;;;;;;;;22.10;99.90;;;;;;4897618;29;20137;-71
2022/09/02 12:16:18;;;;;;;;;;;22.10;99.90;;;;;;4910793;29;20262;-71
2022/09/02 12:18:44;;;;;;;;;;;22.20;99.90;;;;;;4913921;29;20017;-71
2022/09/02 12:21:14;;;;;;;;;;;22.30;99.90;;;;;;4898404;29;19914;-71
2022/09/02 12:23:52;;;;;;;;;;;22.40;99.90;;;;;;4913617;29;19918;-71
2022/09/02 12:26:18;;;;;;;;;;;22.60;99.90;;;;;;4915793;29;19975;-71
2022/09/02 12:28:47;;;;;;;;;;;22.70;99.90;;;;;;4918192;29;19922;-72
2022/09/02 12:31:16;;;;;;;;;;;22.80;99.90;;;;;;4918352;29;19927;-71
2022/09/02 12:33:47;;;;;;;;;;;22.70;99.90;;;;;;4914712;29;20252;-71
2022/09/02 12:36:34;;;;;;;;;;;22.70;99.90;;;;;;4914161;29;19922;-71
2022/09/02 12:39:19;;;;;;;;;;;22.60;99.90;;;;;;4886966;29;19975;-71
2022/09/02 12:41:48;;;;;;;;;;;22.50;99.90;;;;;;4916164;29;19918;-71
2022/09/02 12:44:29;;;;;;;;;;;22.50;99.90;;;;;;4915802;29;20351;-71
2022/09/02 12:46:59;;;;;;;;;;;22.40;99.90;;;;;;4911809;29;19926;-71
2022/09/02 12:49:24;;;;;;;;;;;22.30;99.90;;;;;;4914340;29;20357;-71
2022/09/02 12:51:50;;;;;;;;;;;22.30;99.90;;;;;;4915288;29;20026;-71
2022/09/02 12:54:16;;;;;;;;;;;22.30;99.90;;;;;;4912281;29;19949;-71
2022/09/02 12:56:47;;;;;;;;;;;22.30;99.90;;;;;;4915638;29;19922;-71
2022/09/02 12:59:22;;;;;;;;;;;22.10;99.90;;;;;;4916604;29;19922;-72
2022/09/02 13:02:04;;;;;;;;;;;22.00;99.90;;;;;;4911955;29;20191;-71
2022/09/02 13:04:49;;;;;;;;;;;22.00;99.90;;;;;;4908925;29;19919;-71
2022/09/02 13:07:41;;;;;;;;;;;22.00;99.90;;;;;;4911362;29;19919;-70
2022/09/02 13:10:10;;;;;;;;;;;22.00;99.90;;;;;;4911064;29;19925;-71
2022/09/02 13:12:46;;;;;;;;;;;22.20;99.90;;;;;;4914754;29;20406;-71
2022/09/02 13:15:18;;;;;;;;;;;22.30;99.90;;;;;;4901070;29;19919;-71
2022/09/02 13:17:43;;;;;;;;;;;22.40;99.90;;;;;;4915839;29;19923;-71
2022/09/02 13:20:18;;;;;;;;;;;22.50;99.90;;;;;;4913016;29;19919;-71
2022/09/02 13:22:59;;;;;;;;;;;22.70;99.90;;;;;;4915882;29;20311;-71
2022/09/02 13:25:40;;;;;;;;;;;22.90;99.90;;;;;;4915222;29;19922;-71
2022/09/02 13:28:08;;;;;;;;;;;23.00;99.90;;;;;;4916854;29;20325;-71
2022/09/02 13:30:52;;;;;;;;;;;23.10;99.90;;;;;;4916344;29;19942;-71
2022/09/02 13:33:18;;;;;;;;;;;23.20;99.90;;;;;;4915849;29;19915;-71
2022/09/02 13:35:44;;;;;;;;;;;23.20;99.90;;;;;;4913293;29;20550;-70
2022/09/02 13:38:11;;;;;;;;;;;23.30;99.90;;;;;;4915916;29;19919;-72
2022/09/02 13:40:37;;;;;;;;;;;23.40;99.90;;;;;;4915537;29;20028;-71
2022/09/02 13:43:11;;;;;;;;;;;23.80;99.90;;;;;;4916331;29;20041;-72
2022/09/02 13:45:37;;;;;;;;;;;24.20;99.90;;;;;;4915144;29;20522;-71
2022/09/02 13:48:12;;;;;;;;;;;24.50;99.90;;;;;;4909622;29;20256;-72
2022/09/02 13:50:41;;;;;;;;;;;24.90;99.90;;;;;;4912832;29;19931;-72
2022/09/02 13:53:09;;;;;;;;;;;25.10;99.90;;;;;;4919444;29;20350;-69
2022/09/02 13:55:47;;;;;;;;;;;25.50;99.90;;;;;;4918809;29;19953;-72
2022/09/02 13:58:35;;;;;;;;;;;25.50;99.90;;;;;;4918093;29;19926;-72
2022/09/02 14:01:38;;;;;;;;;;;25.60;99.90;;;;;;4908501;29;19941;-71
2022/09/02 14:04:13;;;;;;;;;;;25.70;99.90;;;;;;4850535;29;20056;-71
2022/09/02 14:06:40;;;;;;;;;;;25.60;99.90;;;;;;4908109;29;19919;-71
2022/09/02 14:09:07;;;;;;;;;;;25.90;99.90;;;;;;4918771;29;19965;-71
2022/09/02 14:11:37;;;;;;;;;;;26.10;99.90;;;;;;4898734;29;20838;-69
2022/09/02 14:14:03;;;;;;;;;;;26.30;99.90;;;;;;4925791;29;20144;-87
2022/09/02 14:16:33;;;;;;;;;;;26.00;99.90;;;;;;4932671;29;19919;-88
2022/09/02 14:19:02;;;;;;;;;;;25.60;99.90;;;;;;4937052;29;19918;-88
2022/09/02 14:21:27;;;;;;;;;;;25.40;99.90;;;;;;4934563;29;20321;-85
2022/09/02 14:23:53;;;;;;;;;;;25.30;99.90;;;;;;4931854;29;19930;-89
2022/09/02 14:26:33;;;;;;;;;;;25.20;99.90;;;;;;4591031;29;10000323;-87
2022/09/02 14:28:59;;;;;;;;;;;25.00;99.90;;;;;;4934361;29;19919;-87
2022/09/02 14:31:29;;;;;;;;;;;25.10;99.90;;;;;;4926961;29;19937;-88